BLX634 LCLK-ESSA
Flight info
| Callsign | BLX634 |
|---|---|
| Flight time | 4h 8m |
| Altitude | 34000 |
| Route | PHA M31 GENOS DCT PEDER M855 TOMBI UA16 AYT UQ23 OSVEL UL619 RAVGO DCT ABJUM/N0450F360 DCT MAKOL DCT MAXOV DCT ETEPA DCT VAMES DCT SAT DCT KENIN DCT LENOV/N0430F320 DCT ORTEB/N0440F360 DCT LUBEN N133 NUBLI DCT PENEX DCT IRLUN N133 PENOR DCT TESPO DCT ARMOD/N0440F370 Z228 NILUG |
| Aircraft | B738/M-SDE2E3FGHIRWXY/LB1 |
Departure
| Time | 2026-05-06 15:28 |
|---|---|
| Airport | Larnaca International Airport (LCLK) |
Arrival
| Time | 2026-05-06 19:37 |
|---|---|
| Airport | Stockholm-Arlanda Airport (ESSA) |
| Time | Latitude | Longitude | Altitude | Speed | Heading |
|---|---|---|---|---|---|
| 2026-05-06 15:07 | 34.87033 | 33.61050 | 19 ft | 0 kts | 236° |
| 2026-05-06 15:18 | 34.87041 | 33.61065 | 19 ft | 4 kts | 236° |
| 2026-05-06 15:18 | 34.87056 | 33.61092 | 20 ft | 4 kts | 245° |
| 2026-05-06 15:18 | 34.87062 | 33.61118 | 22 ft | 2 kts | 264° |
| 2026-05-06 15:19 | 34.87068 | 33.61142 | 20 ft | 4 kts | 207° |
| 2026-05-06 15:19 | 34.87085 | 33.61140 | 23 ft | 4 kts | 135° |
| 2026-05-06 15:19 | 34.87098 | 33.61124 | 21 ft | 0 kts | 135° |
| 2026-05-06 15:21 | 34.87097 | 33.61125 | 19 ft | 1 kts | 135° |
| 2026-05-06 15:22 | 34.87075 | 33.61152 | 19 ft | 9 kts | 135° |
| 2026-05-06 15:22 | 34.87021 | 33.61215 | 19 ft | 11 kts | 136° |
| 2026-05-06 15:22 | 34.86967 | 33.61282 | 21 ft | 11 kts | 134° |
| 2026-05-06 15:22 | 34.86910 | 33.61350 | 16 ft | 13 kts | 135° |
| 2026-05-06 15:23 | 34.86893 | 33.61440 | 19 ft | 12 kts | 53° |
| 2026-05-06 15:23 | 34.86965 | 33.61530 | 17 ft | 18 kts | 45° |
| 2026-05-06 15:23 | 34.87066 | 33.61656 | 22 ft | 23 kts | 45° |
| 2026-05-06 15:23 | 34.87189 | 33.61804 | 19 ft | 27 kts | 45° |
| 2026-05-06 15:24 | 34.87320 | 33.61966 | 20 ft | 27 kts | 45° |
| 2026-05-06 15:24 | 34.87446 | 33.62121 | 18 ft | 25 kts | 44° |
| 2026-05-06 15:24 | 34.87565 | 33.62265 | 15 ft | 23 kts | 45° |
| 2026-05-06 15:24 | 34.87677 | 33.62402 | 17 ft | 22 kts | 45° |
| 2026-05-06 15:25 | 34.87786 | 33.62535 | 17 ft | 22 kts | 45° |
| 2026-05-06 15:25 | 34.87891 | 33.62663 | 20 ft | 21 kts | 45° |
| 2026-05-06 15:25 | 34.88004 | 33.62800 | 19 ft | 24 kts | 45° |
| 2026-05-06 15:25 | 34.88120 | 33.62943 | 20 ft | 23 kts | 45° |
| 2026-05-06 15:26 | 34.88232 | 33.63079 | 16 ft | 22 kts | 45° |
| 2026-05-06 15:26 | 34.88342 | 33.63212 | 16 ft | 22 kts | 45° |
| 2026-05-06 15:26 | 34.88439 | 33.63334 | 17 ft | 15 kts | 60° |
| 2026-05-06 15:26 | 34.88405 | 33.63431 | 20 ft | 13 kts | 134° |
| 2026-05-06 15:27 | 34.88380 | 33.63532 | 18 ft | 13 kts | 100° |
| 2026-05-06 15:27 | 34.88327 | 33.63566 | 17 ft | 6 kts | 235° |
| 2026-05-06 15:27 | 34.88303 | 33.63526 | 16 ft | 11 kts | 227° |
| 2026-05-06 15:27 | 34.88089 | 33.63266 | 16 ft | 76 kts | 225° |
| 2026-05-06 15:28 | 34.87580 | 33.62644 | 19 ft | 132 kts | 225° |
| 2026-05-06 15:28 | 34.86833 | 33.61732 | 175 ft | 165 kts | 224° |
| 2026-05-06 15:28 | 34.86028 | 33.60711 | 782 ft | 172 kts | 226° |
| 2026-05-06 15:28 | 34.85203 | 33.59633 | 1461 ft | 174 kts | 226° |
| 2026-05-06 15:29 | 34.84363 | 33.58536 | 2009 ft | 185 kts | 228° |
| 2026-05-06 15:29 | 34.83419 | 33.57307 | 2252 ft | 209 kts | 228° |
| 2026-05-06 15:29 | 34.82367 | 33.55957 | 2414 ft | 230 kts | 227° |
| 2026-05-06 15:29 | 34.81233 | 33.54511 | 2743 ft | 242 kts | 228° |
| 2026-05-06 15:30 | 34.80453 | 33.53516 | 3071 ft | 245 kts | 227° |
| 2026-05-06 15:30 | 34.79283 | 33.52024 | 3697 ft | 244 kts | 228° |
| 2026-05-06 15:30 | 34.78111 | 33.50530 | 4267 ft | 245 kts | 228° |
| 2026-05-06 15:30 | 34.76919 | 33.49008 | 4722 ft | 252 kts | 229° |
| 2026-05-06 15:31 | 34.75709 | 33.47462 | 5318 ft | 252 kts | 229° |
| 2026-05-06 15:31 | 34.74490 | 33.45904 | 5826 ft | 256 kts | 229° |
| 2026-05-06 15:31 | 34.73499 | 33.44134 | 6307 ft | 254 kts | 258° |
| 2026-05-06 15:32 | 34.73278 | 33.39677 | 7180 ft | 272 kts | 271° |
| 2026-05-06 15:32 | 34.73257 | 33.37373 | 7893 ft | 273 kts | 271° |
| 2026-05-06 15:32 | 34.73228 | 33.35048 | 8540 ft | 276 kts | 271° |
| 2026-05-06 15:32 | 34.73187 | 33.32715 | 9273 ft | 276 kts | 271° |
| 2026-05-06 15:33 | 34.73136 | 33.30375 | 9946 ft | 279 kts | 270° |
| 2026-05-06 15:33 | 34.73076 | 33.27991 | 10373 ft | 290 kts | 270° |
| 2026-05-06 15:33 | 34.73003 | 33.25457 | 10526 ft | 310 kts | 270° |
| 2026-05-06 15:33 | 34.72926 | 33.22754 | 10672 ft | 329 kts | 269° |
| 2026-05-06 15:34 | 34.72841 | 33.19931 | 10816 ft | 347 kts | 269° |
| 2026-05-06 15:34 | 34.72746 | 33.16927 | 10941 ft | 365 kts | 269° |
| 2026-05-06 15:34 | 34.72642 | 33.13779 | 11105 ft | 379 kts | 269° |
| 2026-05-06 15:34 | 34.72533 | 33.10544 | 11483 ft | 386 kts | 269° |
| 2026-05-06 15:35 | 34.72421 | 33.07266 | 11984 ft | 389 kts | 269° |
| 2026-05-06 15:35 | 34.72307 | 33.03974 | 12538 ft | 391 kts | 269° |
| 2026-05-06 15:35 | 34.72193 | 33.00666 | 13130 ft | 392 kts | 269° |
| 2026-05-06 15:35 | 34.72079 | 32.97354 | 13692 ft | 394 kts | 269° |
| 2026-05-06 15:36 | 34.71965 | 32.94004 | 14161 ft | 398 kts | 269° |
| 2026-05-06 15:36 | 34.71846 | 32.90633 | 14686 ft | 400 kts | 269° |
| 2026-05-06 15:36 | 34.71726 | 32.87258 | 15297 ft | 399 kts | 269° |
| 2026-05-06 15:36 | 34.71605 | 32.83895 | 15890 ft | 399 kts | 269° |
| 2026-05-06 15:37 | 34.71485 | 32.80518 | 16410 ft | 401 kts | 269° |
| 2026-05-06 15:37 | 34.71362 | 32.77118 | 16901 ft | 404 kts | 269° |
| 2026-05-06 15:37 | 34.71239 | 32.73707 | 17421 ft | 405 kts | 269° |
| 2026-05-06 15:37 | 34.71113 | 32.70275 | 17892 ft | 407 kts | 269° |
| 2026-05-06 15:38 | 34.70988 | 32.66872 | 18383 ft | 409 kts | 269° |
| 2026-05-06 15:38 | 34.70864 | 32.63411 | 18800 ft | 410 kts | 271° |
| 2026-05-06 15:38 | 34.71167 | 32.59982 | 19166 ft | 410 kts | 287° |
| 2026-05-06 15:38 | 34.72296 | 32.56810 | 19608 ft | 410 kts | 298° |
| 2026-05-06 15:39 | 34.73749 | 32.53827 | 20043 ft | 411 kts | 303° |
| 2026-05-06 15:39 | 34.75518 | 32.51075 | 20424 ft | 415 kts | 311° |
| 2026-05-06 15:39 | 34.77496 | 32.48514 | 20827 ft | 416 kts | 312° |
| 2026-05-06 15:39 | 34.79511 | 32.45967 | 21220 ft | 418 kts | 312° |
| 2026-05-06 15:40 | 34.81539 | 32.43415 | 21613 ft | 420 kts | 312° |
| 2026-05-06 15:40 | 34.83569 | 32.40852 | 22000 ft | 421 kts | 312° |
| 2026-05-06 15:40 | 34.85598 | 32.38275 | 22368 ft | 423 kts | 312° |
| 2026-05-06 15:40 | 34.87637 | 32.35671 | 22719 ft | 425 kts | 312° |
| 2026-05-06 15:41 | 34.89678 | 32.33053 | 23073 ft | 426 kts | 312° |
| 2026-05-06 15:41 | 34.91721 | 32.30426 | 23425 ft | 428 kts | 312° |
| 2026-05-06 15:41 | 34.93770 | 32.27785 | 23729 ft | 430 kts | 312° |
| 2026-05-06 15:41 | 34.95827 | 32.25130 | 23990 ft | 431 kts | 312° |
| 2026-05-06 15:42 | 34.97885 | 32.22471 | 24310 ft | 432 kts | 312° |
| 2026-05-06 15:42 | 34.99951 | 32.19801 | 24587 ft | 433 kts | 312° |
| 2026-05-06 15:42 | 35.02024 | 32.17121 | 24823 ft | 435 kts | 312° |
| 2026-05-06 15:42 | 35.04108 | 32.14423 | 25069 ft | 437 kts | 312° |
| 2026-05-06 15:43 | 35.06172 | 32.11750 | 25306 ft | 438 kts | 312° |
| 2026-05-06 15:43 | 35.08268 | 32.09033 | 25559 ft | 440 kts | 312° |
| 2026-05-06 15:43 | 35.10366 | 32.06311 | 25803 ft | 440 kts | 312° |
| 2026-05-06 15:43 | 35.12465 | 32.03586 | 26051 ft | 441 kts | 312° |
| 2026-05-06 15:44 | 35.14567 | 32.00855 | 26278 ft | 441 kts | 312° |
| 2026-05-06 15:44 | 35.16670 | 31.98121 | 26539 ft | 440 kts | 312° |
| 2026-05-06 15:44 | 35.18763 | 31.95397 | 26854 ft | 439 kts | 312° |
| 2026-05-06 15:44 | 35.20855 | 31.92674 | 27124 ft | 438 kts | 312° |
| 2026-05-06 15:45 | 35.22941 | 31.89954 | 27390 ft | 438 kts | 312° |
| 2026-05-06 15:45 | 35.25021 | 31.87241 | 27712 ft | 436 kts | 312° |
| 2026-05-06 15:45 | 35.27070 | 31.84567 | 27988 ft | 436 kts | 312° |
| 2026-05-06 15:45 | 35.29168 | 31.81826 | 28247 ft | 435 kts | 312° |
| 2026-05-06 15:46 | 35.31212 | 31.79153 | 28539 ft | 434 kts | 312° |
| 2026-05-06 15:46 | 35.33275 | 31.76452 | 28866 ft | 433 kts | 312° |
| 2026-05-06 15:46 | 35.35340 | 31.73748 | 29151 ft | 433 kts | 312° |
| 2026-05-06 15:46 | 35.37392 | 31.71059 | 29441 ft | 432 kts | 312° |
| 2026-05-06 15:47 | 35.39441 | 31.68370 | 29751 ft | 431 kts | 312° |
| 2026-05-06 15:47 | 35.41485 | 31.65687 | 30053 ft | 430 kts | 312° |
| 2026-05-06 15:47 | 35.43523 | 31.63010 | 30312 ft | 429 kts | 312° |
| 2026-05-06 15:47 | 35.45557 | 31.60335 | 30572 ft | 428 kts | 312° |
| 2026-05-06 15:48 | 35.47582 | 31.57669 | 30837 ft | 426 kts | 311° |
| 2026-05-06 15:48 | 35.49577 | 31.55041 | 31094 ft | 425 kts | 311° |
| 2026-05-06 15:48 | 35.51588 | 31.52391 | 31340 ft | 424 kts | 311° |
| 2026-05-06 15:48 | 35.53596 | 31.49742 | 31619 ft | 422 kts | 311° |
| 2026-05-06 15:49 | 35.55589 | 31.47112 | 31911 ft | 420 kts | 311° |
| 2026-05-06 15:49 | 35.57576 | 31.44486 | 32166 ft | 419 kts | 311° |
| 2026-05-06 15:49 | 35.59554 | 31.41870 | 32395 ft | 418 kts | 311° |
| 2026-05-06 15:49 | 35.61529 | 31.39256 | 32638 ft | 417 kts | 311° |
| 2026-05-06 15:50 | 35.63503 | 31.36642 | 32872 ft | 416 kts | 311° |
| 2026-05-06 15:50 | 35.65468 | 31.34038 | 33128 ft | 414 kts | 311° |
| 2026-05-06 15:50 | 35.67429 | 31.31436 | 33306 ft | 415 kts | 311° |
| 2026-05-06 15:50 | 35.69396 | 31.28824 | 33421 ft | 417 kts | 311° |
| 2026-05-06 15:51 | 35.71363 | 31.26212 | 33649 ft | 415 kts | 311° |
| 2026-05-06 15:51 | 35.73320 | 31.23610 | 33923 ft | 413 kts | 311° |
| 2026-05-06 15:51 | 35.75264 | 31.21023 | 34198 ft | 411 kts | 311° |
| 2026-05-06 15:51 | 35.77205 | 31.18438 | 34320 ft | 412 kts | 311° |
| 2026-05-06 15:52 | 35.81104 | 31.13239 | 34526 ft | 414 kts | 311° |
| 2026-05-06 15:52 | 35.83033 | 31.10663 | 34677 ft | 413 kts | 311° |
| 2026-05-06 15:52 | 35.84984 | 31.08057 | 34814 ft | 414 kts | 311° |
| 2026-05-06 15:53 | 35.86937 | 31.05445 | 34916 ft | 415 kts | 311° |
| 2026-05-06 15:53 | 35.88891 | 31.02830 | 35049 ft | 415 kts | 311° |
| 2026-05-06 15:53 | 35.90846 | 31.00212 | 35179 ft | 415 kts | 311° |
| 2026-05-06 15:53 | 35.92801 | 30.97591 | 35293 ft | 415 kts | 311° |
| 2026-05-06 15:54 | 35.94761 | 30.94962 | 35451 ft | 415 kts | 311° |
| 2026-05-06 15:54 | 35.96706 | 30.92350 | 35681 ft | 412 kts | 311° |
| 2026-05-06 15:54 | 35.98647 | 30.89744 | 35815 ft | 412 kts | 311° |
| 2026-05-06 15:54 | 36.00592 | 30.87132 | 35926 ft | 413 kts | 312° |
| 2026-05-06 15:55 | 36.02786 | 30.84834 | 36000 ft | 417 kts | 326° |
| 2026-05-06 15:55 | 36.05405 | 30.83251 | 36056 ft | 421 kts | 336° |
| 2026-05-06 15:55 | 36.11186 | 30.82010 | 36075 ft | 432 kts | 353° |
| 2026-05-06 15:56 | 36.17205 | 30.81910 | 36061 ft | 432 kts | 354° |
| 2026-05-06 15:56 | 36.23235 | 30.81785 | 36047 ft | 432 kts | 353° |
| 2026-05-06 15:57 | 36.29217 | 30.81605 | 36064 ft | 432 kts | 353° |
| 2026-05-06 15:57 | 36.35227 | 30.81408 | 36048 ft | 432 kts | 353° |
| 2026-05-06 15:58 | 36.41226 | 30.81215 | 36051 ft | 431 kts | 353° |
| 2026-05-06 15:58 | 36.47223 | 30.81012 | 36052 ft | 430 kts | 353° |
| 2026-05-06 15:59 | 36.53196 | 30.80662 | 36050 ft | 428 kts | 351° |
| 2026-05-06 15:59 | 36.59141 | 30.80040 | 36057 ft | 428 kts | 350° |
| 2026-05-06 16:00 | 36.65036 | 30.79408 | 36063 ft | 428 kts | 350° |
| 2026-05-06 16:00 | 36.70979 | 30.78804 | 36067 ft | 429 kts | 351° |
| 2026-05-06 16:01 | 36.76936 | 30.78218 | 36075 ft | 429 kts | 351° |
| 2026-05-06 16:01 | 36.82892 | 30.77638 | 36076 ft | 430 kts | 351° |
| 2026-05-06 16:02 | 36.88856 | 30.77057 | 36088 ft | 430 kts | 351° |
| 2026-05-06 16:02 | 36.94825 | 30.76473 | 36077 ft | 431 kts | 351° |
| 2026-05-06 16:03 | 37.00807 | 30.75887 | 36075 ft | 431 kts | 351° |
| 2026-05-06 16:03 | 37.06802 | 30.75299 | 36074 ft | 432 kts | 351° |
| 2026-05-06 16:04 | 37.12760 | 30.74713 | 36078 ft | 432 kts | 351° |
| 2026-05-06 16:04 | 37.18757 | 30.74123 | 36078 ft | 433 kts | 351° |
| 2026-05-06 16:05 | 37.24765 | 30.73530 | 36075 ft | 433 kts | 351° |
| 2026-05-06 16:05 | 37.30777 | 30.72936 | 36082 ft | 433 kts | 352° |
| 2026-05-06 16:06 | 37.36783 | 30.72342 | 36074 ft | 433 kts | 352° |
| 2026-05-06 16:06 | 37.42798 | 30.71747 | 36062 ft | 433 kts | 352° |
| 2026-05-06 16:07 | 37.48806 | 30.71151 | 36070 ft | 433 kts | 352° |
| 2026-05-06 16:07 | 37.54807 | 30.70555 | 36104 ft | 432 kts | 352° |
| 2026-05-06 16:08 | 37.60769 | 30.69960 | 36088 ft | 433 kts | 352° |
| 2026-05-06 16:08 | 37.66770 | 30.69362 | 36090 ft | 432 kts | 352° |
| 2026-05-06 16:09 | 37.72770 | 30.68763 | 36106 ft | 432 kts | 352° |
| 2026-05-06 16:09 | 37.78756 | 30.68164 | 36106 ft | 432 kts | 352° |
| 2026-05-06 16:10 | 37.84750 | 30.67563 | 36101 ft | 432 kts | 352° |
| 2026-05-06 16:10 | 37.90738 | 30.66962 | 36100 ft | 431 kts | 352° |
| 2026-05-06 16:11 | 37.96678 | 30.66365 | 36119 ft | 430 kts | 352° |
| 2026-05-06 16:11 | 38.02661 | 30.65762 | 36111 ft | 430 kts | 352° |
| 2026-05-06 16:12 | 38.08632 | 30.65160 | 36112 ft | 430 kts | 352° |
| 2026-05-06 16:12 | 38.14605 | 30.64557 | 36090 ft | 431 kts | 352° |
| 2026-05-06 16:13 | 38.20574 | 30.63953 | 36106 ft | 430 kts | 352° |
| 2026-05-06 16:13 | 38.26543 | 30.63348 | 36104 ft | 430 kts | 352° |
| 2026-05-06 16:14 | 38.32506 | 30.62742 | 36097 ft | 430 kts | 352° |
| 2026-05-06 16:14 | 38.38431 | 30.62139 | 36114 ft | 430 kts | 352° |
| 2026-05-06 16:15 | 38.44402 | 30.61531 | 36103 ft | 430 kts | 352° |
| 2026-05-06 16:15 | 38.50375 | 30.60922 | 36094 ft | 430 kts | 352° |
| 2026-05-06 16:16 | 38.56342 | 30.60312 | 36087 ft | 430 kts | 352° |
| 2026-05-06 16:16 | 38.62306 | 30.59701 | 36087 ft | 430 kts | 352° |
| 2026-05-06 16:17 | 38.68269 | 30.59090 | 36089 ft | 430 kts | 352° |
| 2026-05-06 16:17 | 38.74237 | 30.58476 | 36090 ft | 430 kts | 352° |
| 2026-05-06 16:18 | 38.79188 | 30.57967 | 36106 ft | 430 kts | 352° |
| 2026-05-06 16:18 | 38.86131 | 30.57251 | 36092 ft | 430 kts | 352° |
| 2026-05-06 16:19 | 38.91134 | 30.56735 | 36086 ft | 430 kts | 352° |
| 2026-05-06 16:19 | 38.97060 | 30.56067 | 36080 ft | 429 kts | 348° |
| 2026-05-06 16:20 | 39.02755 | 30.53958 | 36089 ft | 426 kts | 339° |
| 2026-05-06 16:20 | 39.08378 | 30.51513 | 36079 ft | 426 kts | 340° |
| 2026-05-06 16:21 | 39.14010 | 30.49089 | 36082 ft | 426 kts | 340° |
| 2026-05-06 16:21 | 39.19651 | 30.46684 | 36079 ft | 427 kts | 340° |
| 2026-05-06 16:22 | 39.25297 | 30.44283 | 36081 ft | 427 kts | 340° |
| 2026-05-06 16:22 | 39.30942 | 30.41880 | 36077 ft | 427 kts | 340° |
| 2026-05-06 16:23 | 39.36552 | 30.39489 | 36072 ft | 427 kts | 340° |
| 2026-05-06 16:23 | 39.42192 | 30.37079 | 36080 ft | 427 kts | 340° |
| 2026-05-06 16:24 | 39.47828 | 30.34667 | 36084 ft | 427 kts | 340° |
| 2026-05-06 16:24 | 39.53471 | 30.32248 | 36082 ft | 427 kts | 340° |
| 2026-05-06 16:25 | 39.59107 | 30.29827 | 36076 ft | 427 kts | 340° |
| 2026-05-06 16:25 | 39.64744 | 30.27402 | 36079 ft | 426 kts | 340° |
| 2026-05-06 16:26 | 39.70385 | 30.24971 | 36082 ft | 426 kts | 340° |
| 2026-05-06 16:26 | 39.76022 | 30.22538 | 36071 ft | 426 kts | 340° |
| 2026-05-06 16:27 | 39.81652 | 30.20104 | 36080 ft | 426 kts | 340° |
| 2026-05-06 16:27 | 39.87250 | 30.17679 | 36078 ft | 426 kts | 340° |
| 2026-05-06 16:28 | 39.92887 | 30.15233 | 36080 ft | 427 kts | 340° |
| 2026-05-06 16:28 | 39.98526 | 30.12782 | 36084 ft | 427 kts | 340° |
| 2026-05-06 16:29 | 40.04168 | 30.10325 | 36071 ft | 427 kts | 340° |
| 2026-05-06 16:29 | 40.09805 | 30.07866 | 36067 ft | 426 kts | 340° |
| 2026-05-06 16:30 | 40.14478 | 30.05825 | 36071 ft | 426 kts | 340° |
| 2026-05-06 16:30 | 40.21012 | 30.02965 | 36076 ft | 425 kts | 340° |
| 2026-05-06 16:31 | 40.26639 | 30.00498 | 36073 ft | 425 kts | 340° |
| 2026-05-06 16:31 | 40.32253 | 29.98032 | 36059 ft | 425 kts | 340° |
| 2026-05-06 16:32 | 40.37869 | 29.95561 | 36068 ft | 426 kts | 340° |
| 2026-05-06 16:32 | 40.43482 | 29.93086 | 36067 ft | 426 kts | 340° |
| 2026-05-06 16:33 | 40.49093 | 29.90609 | 36068 ft | 425 kts | 340° |
| 2026-05-06 16:34 | 40.57511 | 29.86883 | 36072 ft | 426 kts | 340° |
| 2026-05-06 16:34 | 40.63115 | 29.84398 | 36068 ft | 427 kts | 340° |
| 2026-05-06 16:35 | 40.68766 | 29.81887 | 36071 ft | 428 kts | 340° |
| 2026-05-06 16:35 | 40.74399 | 29.79379 | 36066 ft | 427 kts | 340° |
| 2026-05-06 16:36 | 40.80019 | 29.76874 | 36070 ft | 426 kts | 340° |
| 2026-05-06 16:36 | 40.85633 | 29.74366 | 36074 ft | 426 kts | 340° |
| 2026-05-06 16:37 | 40.91244 | 29.71855 | 36083 ft | 425 kts | 340° |
| 2026-05-06 16:37 | 40.96813 | 29.69358 | 36074 ft | 425 kts | 340° |
| 2026-05-06 16:38 | 41.02425 | 29.66837 | 36082 ft | 426 kts | 340° |
| 2026-05-06 16:38 | 41.08042 | 29.64311 | 36086 ft | 427 kts | 340° |
| 2026-05-06 16:39 | 41.13667 | 29.61775 | 36080 ft | 426 kts | 340° |
| 2026-05-06 16:39 | 41.19288 | 29.59237 | 36082 ft | 426 kts | 340° |
| 2026-05-06 16:40 | 41.24901 | 29.56697 | 36093 ft | 426 kts | 341° |
| 2026-05-06 16:40 | 41.30510 | 29.54155 | 36092 ft | 426 kts | 341° |
| 2026-05-06 16:41 | 41.36121 | 29.51608 | 36081 ft | 425 kts | 341° |
| 2026-05-06 16:41 | 41.41715 | 29.49063 | 36085 ft | 424 kts | 341° |
| 2026-05-06 16:42 | 41.47271 | 29.46531 | 36092 ft | 425 kts | 341° |
| 2026-05-06 16:42 | 41.52861 | 29.43979 | 36097 ft | 425 kts | 341° |
| 2026-05-06 16:43 | 41.58460 | 29.41418 | 36098 ft | 425 kts | 341° |
| 2026-05-06 16:43 | 41.64063 | 29.38850 | 36108 ft | 425 kts | 341° |
| 2026-05-06 16:44 | 41.69661 | 29.36280 | 36098 ft | 426 kts | 341° |
| 2026-05-06 16:44 | 41.75275 | 29.33699 | 36096 ft | 426 kts | 341° |
| 2026-05-06 16:45 | 41.80890 | 29.31111 | 36099 ft | 427 kts | 341° |
| 2026-05-06 16:45 | 41.86471 | 29.28534 | 36111 ft | 427 kts | 341° |
| 2026-05-06 16:46 | 41.92087 | 29.25936 | 36099 ft | 427 kts | 341° |
| 2026-05-06 16:46 | 41.97704 | 29.23333 | 36102 ft | 427 kts | 341° |
| 2026-05-06 16:47 | 42.03330 | 29.20720 | 36102 ft | 428 kts | 341° |
| 2026-05-06 16:47 | 42.08954 | 29.18102 | 36100 ft | 428 kts | 341° |
| 2026-05-06 16:48 | 42.14590 | 29.15477 | 36098 ft | 428 kts | 341° |
| 2026-05-06 16:48 | 42.19915 | 29.11964 | 36102 ft | 428 kts | 328° |
| 2026-05-06 16:49 | 42.24881 | 29.07522 | 36106 ft | 428 kts | 327° |
| 2026-05-06 16:49 | 42.29846 | 29.03075 | 36102 ft | 428 kts | 328° |
| 2026-05-06 16:50 | 42.34817 | 28.98647 | 36098 ft | 428 kts | 328° |
| 2026-05-06 16:50 | 42.39789 | 28.94227 | 36100 ft | 427 kts | 328° |
| 2026-05-06 16:51 | 42.44761 | 28.89803 | 36105 ft | 427 kts | 328° |
| 2026-05-06 16:51 | 42.49698 | 28.85404 | 36104 ft | 427 kts | 328° |
| 2026-05-06 16:52 | 42.54666 | 28.80970 | 36100 ft | 428 kts | 328° |
| 2026-05-06 16:52 | 42.59635 | 28.76515 | 36102 ft | 428 kts | 328° |
| 2026-05-06 16:53 | 42.64618 | 28.72043 | 36107 ft | 430 kts | 328° |
| 2026-05-06 16:53 | 42.69618 | 28.67549 | 36108 ft | 432 kts | 328° |
| 2026-05-06 16:54 | 42.74634 | 28.63038 | 36105 ft | 432 kts | 328° |
| 2026-05-06 16:54 | 42.79641 | 28.58519 | 36100 ft | 431 kts | 328° |
| 2026-05-06 16:55 | 42.84610 | 28.54027 | 36100 ft | 431 kts | 327° |
| 2026-05-06 16:55 | 42.89609 | 28.49494 | 36099 ft | 432 kts | 327° |
| 2026-05-06 16:56 | 42.94615 | 28.44948 | 36096 ft | 431 kts | 327° |
| 2026-05-06 16:56 | 42.99609 | 28.40406 | 36099 ft | 431 kts | 327° |
| 2026-05-06 16:57 | 43.04598 | 28.35859 | 36101 ft | 430 kts | 327° |
| 2026-05-06 16:57 | 43.09584 | 28.31313 | 36100 ft | 430 kts | 327° |
| 2026-05-06 16:58 | 43.14553 | 28.26766 | 36092 ft | 429 kts | 327° |
| 2026-05-06 16:58 | 43.19509 | 28.22224 | 36095 ft | 428 kts | 327° |
| 2026-05-06 16:59 | 43.24454 | 28.17686 | 36098 ft | 427 kts | 327° |
| 2026-05-06 16:59 | 43.29357 | 28.13158 | 36090 ft | 427 kts | 327° |
| 2026-05-06 17:00 | 43.34284 | 28.08591 | 36075 ft | 426 kts | 326° |
| 2026-05-06 17:00 | 43.39205 | 28.04055 | 36078 ft | 426 kts | 327° |
| 2026-05-06 17:01 | 43.44143 | 27.99495 | 36073 ft | 427 kts | 327° |
| 2026-05-06 17:01 | 43.49074 | 27.94920 | 36079 ft | 428 kts | 327° |
| 2026-05-06 17:02 | 43.54023 | 27.90325 | 36070 ft | 428 kts | 326° |
| 2026-05-06 17:02 | 43.58931 | 27.85745 | 36072 ft | 428 kts | 327° |
| 2026-05-06 17:03 | 43.63839 | 27.81066 | 36066 ft | 429 kts | 325° |
| 2026-05-06 17:03 | 43.68659 | 27.76218 | 36067 ft | 429 kts | 325° |
| 2026-05-06 17:04 | 43.73476 | 27.71336 | 36062 ft | 429 kts | 325° |
| 2026-05-06 17:04 | 43.78285 | 27.66475 | 36048 ft | 427 kts | 325° |
| 2026-05-06 17:05 | 43.83076 | 27.61606 | 36053 ft | 427 kts | 324° |
| 2026-05-06 17:05 | 43.87875 | 27.56759 | 36048 ft | 426 kts | 325° |
| 2026-05-06 17:06 | 43.91861 | 27.52735 | 36027 ft | 426 kts | 325° |
| 2026-05-06 17:06 | 43.96639 | 27.47889 | 36046 ft | 425 kts | 325° |
| 2026-05-06 17:07 | 44.01418 | 27.43030 | 36038 ft | 425 kts | 325° |
| 2026-05-06 17:07 | 44.06193 | 27.38165 | 36036 ft | 426 kts | 325° |
| 2026-05-06 17:08 | 44.10938 | 27.33318 | 36031 ft | 426 kts | 324° |
| 2026-05-06 17:08 | 44.15709 | 27.28432 | 36025 ft | 425 kts | 324° |
| 2026-05-06 17:09 | 44.20471 | 27.23547 | 36023 ft | 425 kts | 324° |
| 2026-05-06 17:09 | 44.25225 | 27.18667 | 36025 ft | 425 kts | 324° |
| 2026-05-06 17:10 | 44.29990 | 27.13759 | 36027 ft | 425 kts | 324° |
| 2026-05-06 17:10 | 44.34750 | 27.08846 | 36015 ft | 425 kts | 324° |
| 2026-05-06 17:11 | 44.39509 | 27.03926 | 36023 ft | 425 kts | 324° |
| 2026-05-06 17:11 | 44.44261 | 26.99006 | 36021 ft | 425 kts | 324° |
| 2026-05-06 17:12 | 44.49018 | 26.94069 | 36018 ft | 425 kts | 324° |
| 2026-05-06 17:12 | 44.53770 | 26.89125 | 36027 ft | 425 kts | 324° |
| 2026-05-06 17:13 | 44.58521 | 26.84173 | 36021 ft | 426 kts | 324° |
| 2026-05-06 17:13 | 44.63263 | 26.79218 | 36017 ft | 427 kts | 324° |
| 2026-05-06 17:14 | 44.68029 | 26.74227 | 36020 ft | 428 kts | 324° |
| 2026-05-06 17:14 | 44.72799 | 26.69224 | 36018 ft | 428 kts | 324° |
| 2026-05-06 17:15 | 44.77568 | 26.64211 | 36011 ft | 427 kts | 324° |
| 2026-05-06 17:15 | 44.82326 | 26.59196 | 36022 ft | 427 kts | 324° |
| 2026-05-06 17:16 | 44.87087 | 26.54166 | 36018 ft | 428 kts | 324° |
| 2026-05-06 17:16 | 44.91851 | 26.49124 | 36015 ft | 428 kts | 324° |
| 2026-05-06 17:17 | 44.96614 | 26.44075 | 36005 ft | 428 kts | 323° |
| 2026-05-06 17:17 | 45.01371 | 26.39020 | 36012 ft | 428 kts | 323° |
| 2026-05-06 17:18 | 45.06124 | 26.33959 | 36014 ft | 427 kts | 323° |
| 2026-05-06 17:18 | 45.10882 | 26.28883 | 36037 ft | 428 kts | 323° |
| 2026-05-06 17:19 | 45.15632 | 26.23803 | 36010 ft | 428 kts | 323° |
| 2026-05-06 17:19 | 45.20385 | 26.18709 | 36013 ft | 429 kts | 323° |
| 2026-05-06 17:20 | 45.25140 | 26.13603 | 36024 ft | 428 kts | 323° |
| 2026-05-06 17:20 | 45.29893 | 26.08487 | 36024 ft | 429 kts | 323° |
| 2026-05-06 17:21 | 45.34646 | 26.03360 | 36033 ft | 429 kts | 323° |
| 2026-05-06 17:21 | 45.39403 | 25.98218 | 36037 ft | 429 kts | 323° |
| 2026-05-06 17:22 | 45.44147 | 25.93080 | 36026 ft | 430 kts | 323° |
| 2026-05-06 17:22 | 45.48872 | 25.87953 | 36032 ft | 429 kts | 323° |
| 2026-05-06 17:23 | 45.53624 | 25.82783 | 36031 ft | 430 kts | 323° |
| 2026-05-06 17:23 | 45.58378 | 25.77600 | 36010 ft | 430 kts | 322° |
| 2026-05-06 17:24 | 45.63134 | 25.72406 | 36010 ft | 430 kts | 322° |
| 2026-05-06 17:24 | 45.67880 | 25.67204 | 36006 ft | 430 kts | 322° |
| 2026-05-06 17:25 | 45.72633 | 25.61985 | 35999 ft | 431 kts | 322° |
| 2026-05-06 17:25 | 45.77356 | 25.56789 | 35995 ft | 431 kts | 322° |
| 2026-05-06 17:26 | 45.82108 | 25.51553 | 35988 ft | 431 kts | 322° |
| 2026-05-06 17:26 | 45.86854 | 25.46307 | 35986 ft | 431 kts | 322° |
| 2026-05-06 17:27 | 45.91631 | 25.41018 | 35985 ft | 431 kts | 322° |
| 2026-05-06 17:27 | 45.96374 | 25.35754 | 35975 ft | 431 kts | 322° |
| 2026-05-06 17:28 | 46.01094 | 25.30504 | 35958 ft | 431 kts | 321° |
| 2026-05-06 17:28 | 46.05832 | 25.25222 | 35961 ft | 431 kts | 321° |
| 2026-05-06 17:29 | 46.10567 | 25.19932 | 35957 ft | 431 kts | 321° |
| 2026-05-06 17:29 | 46.15297 | 25.14635 | 35957 ft | 431 kts | 321° |
| 2026-05-06 17:30 | 46.20034 | 25.09319 | 35950 ft | 431 kts | 321° |
| 2026-05-06 17:30 | 46.24759 | 25.04004 | 35957 ft | 430 kts | 321° |
| 2026-05-06 17:31 | 46.29486 | 24.98675 | 35949 ft | 431 kts | 321° |
| 2026-05-06 17:31 | 46.34177 | 24.93375 | 35949 ft | 431 kts | 321° |
| 2026-05-06 17:32 | 46.38903 | 24.88022 | 35938 ft | 431 kts | 321° |
| 2026-05-06 17:32 | 46.43624 | 24.82661 | 35928 ft | 431 kts | 321° |
| 2026-05-06 17:33 | 46.48350 | 24.77282 | 35927 ft | 431 kts | 321° |
| 2026-05-06 17:33 | 46.53057 | 24.71894 | 35923 ft | 431 kts | 319° |
| 2026-05-06 17:34 | 46.57450 | 24.65998 | 35927 ft | 430 kts | 315° |
| 2026-05-06 17:34 | 46.61736 | 24.59912 | 35923 ft | 431 kts | 315° |
| 2026-05-06 17:35 | 46.66036 | 24.53833 | 35917 ft | 431 kts | 315° |
| 2026-05-06 17:35 | 46.70359 | 24.47768 | 35925 ft | 431 kts | 315° |
| 2026-05-06 17:36 | 46.76821 | 24.38723 | 35923 ft | 431 kts | 315° |
| 2026-05-06 17:36 | 46.81144 | 24.32645 | 35923 ft | 431 kts | 315° |
| 2026-05-06 17:37 | 46.85458 | 24.26543 | 35925 ft | 431 kts | 315° |
| 2026-05-06 17:37 | 46.89766 | 24.20457 | 35925 ft | 431 kts | 315° |
| 2026-05-06 17:38 | 46.94082 | 24.14354 | 35929 ft | 431 kts | 315° |
| 2026-05-06 17:38 | 46.98390 | 24.08240 | 35936 ft | 431 kts | 315° |
| 2026-05-06 17:39 | 47.02699 | 24.02110 | 35930 ft | 431 kts | 315° |
| 2026-05-06 17:39 | 47.06967 | 23.96023 | 35934 ft | 431 kts | 315° |
| 2026-05-06 17:40 | 47.11266 | 23.89878 | 35930 ft | 431 kts | 315° |
| 2026-05-06 17:40 | 47.15563 | 23.83720 | 35941 ft | 431 kts | 315° |
| 2026-05-06 17:41 | 47.19844 | 23.77570 | 35942 ft | 430 kts | 315° |
| 2026-05-06 17:41 | 47.24098 | 23.71443 | 35954 ft | 430 kts | 314° |
| 2026-05-06 17:42 | 47.28372 | 23.65271 | 35946 ft | 430 kts | 314° |
| 2026-05-06 17:42 | 47.32655 | 23.59074 | 35944 ft | 431 kts | 314° |
| 2026-05-06 17:43 | 47.36816 | 23.52717 | 35942 ft | 430 kts | 310° |
| 2026-05-06 17:43 | 47.40671 | 23.45953 | 35952 ft | 430 kts | 309° |
| 2026-05-06 17:44 | 47.44487 | 23.39156 | 35948 ft | 430 kts | 309° |
| 2026-05-06 17:44 | 47.48331 | 23.32386 | 35943 ft | 430 kts | 309° |
| 2026-05-06 17:45 | 47.52159 | 23.25677 | 35929 ft | 429 kts | 309° |
| 2026-05-06 17:45 | 47.56008 | 23.18921 | 35927 ft | 429 kts | 309° |
| 2026-05-06 17:46 | 47.59855 | 23.12151 | 35924 ft | 429 kts | 309° |
| 2026-05-06 17:46 | 47.63692 | 23.05391 | 35916 ft | 429 kts | 309° |
| 2026-05-06 17:47 | 47.67525 | 22.98604 | 35913 ft | 429 kts | 309° |
| 2026-05-06 17:47 | 47.71352 | 22.91816 | 35911 ft | 429 kts | 309° |
| 2026-05-06 17:48 | 47.75359 | 22.85241 | 35927 ft | 430 kts | 313° |
| 2026-05-06 17:48 | 47.79600 | 22.78968 | 35911 ft | 430 kts | 313° |
| 2026-05-06 17:49 | 47.83815 | 22.72741 | 35920 ft | 429 kts | 313° |
| 2026-05-06 17:49 | 47.88021 | 22.66444 | 35915 ft | 429 kts | 313° |
| 2026-05-06 17:50 | 47.91538 | 22.61140 | 35915 ft | 429 kts | 313° |
| 2026-05-06 17:50 | 47.95695 | 22.54847 | 35921 ft | 429 kts | 312° |
| 2026-05-06 17:51 | 47.99884 | 22.48489 | 35912 ft | 429 kts | 312° |
| 2026-05-06 17:51 | 48.04072 | 22.42121 | 35911 ft | 430 kts | 312° |
| 2026-05-06 17:52 | 48.08263 | 22.35731 | 35910 ft | 430 kts | 312° |
| 2026-05-06 17:52 | 48.12445 | 22.29340 | 35904 ft | 430 kts | 312° |
| 2026-05-06 17:53 | 48.16629 | 22.22929 | 35902 ft | 431 kts | 312° |
| 2026-05-06 17:53 | 48.20821 | 22.16489 | 35901 ft | 431 kts | 312° |
| 2026-05-06 17:54 | 48.25584 | 22.10947 | 35907 ft | 436 kts | 323° |
| 2026-05-06 17:54 | 48.30688 | 22.05999 | 35902 ft | 437 kts | 324° |
| 2026-05-06 17:55 | 48.35779 | 22.01002 | 35899 ft | 437 kts | 323° |
| 2026-05-06 17:55 | 48.40857 | 21.95939 | 35891 ft | 437 kts | 323° |
| 2026-05-06 17:56 | 48.45898 | 21.90896 | 35892 ft | 438 kts | 323° |
| 2026-05-06 17:56 | 48.50974 | 21.85808 | 35894 ft | 438 kts | 323° |
| 2026-05-06 17:57 | 48.56050 | 21.80695 | 35901 ft | 438 kts | 322° |
| 2026-05-06 17:57 | 48.61127 | 21.75567 | 35990 ft | 439 kts | 322° |
| 2026-05-06 17:58 | 48.63667 | 21.72998 | 36176 ft | 438 kts | 322° |
| 2026-05-06 17:58 | 48.66197 | 21.70435 | 36372 ft | 437 kts | 322° |
| 2026-05-06 17:58 | 48.68719 | 21.67879 | 36553 ft | 436 kts | 322° |
| 2026-05-06 17:58 | 48.71211 | 21.65346 | 36691 ft | 437 kts | 322° |
| 2026-05-06 17:59 | 48.73731 | 21.62784 | 36818 ft | 437 kts | 322° |
| 2026-05-06 17:59 | 48.76258 | 21.60212 | 37000 ft | 436 kts | 322° |
| 2026-05-06 17:59 | 48.78772 | 21.57656 | 37203 ft | 435 kts | 322° |
| 2026-05-06 17:59 | 48.81285 | 21.55094 | 37407 ft | 434 kts | 322° |
| 2026-05-06 18:00 | 48.83794 | 21.52533 | 37572 ft | 434 kts | 322° |
| 2026-05-06 18:00 | 48.86302 | 21.49969 | 37652 ft | 436 kts | 322° |
| 2026-05-06 18:00 | 48.88823 | 21.47388 | 37771 ft | 437 kts | 322° |
| 2026-05-06 18:00 | 48.91342 | 21.44808 | 37868 ft | 437 kts | 322° |
| 2026-05-06 18:01 | 48.96389 | 21.39628 | 37874 ft | 436 kts | 321° |
| 2026-05-06 18:01 | 49.01414 | 21.34457 | 37881 ft | 435 kts | 322° |
| 2026-05-06 18:02 | 49.06430 | 21.29285 | 37876 ft | 435 kts | 322° |
| 2026-05-06 18:02 | 49.11430 | 21.24114 | 37865 ft | 434 kts | 322° |
| 2026-05-06 18:03 | 49.16425 | 21.18932 | 37866 ft | 434 kts | 321° |
| 2026-05-06 18:03 | 49.21397 | 21.13755 | 37865 ft | 435 kts | 321° |
| 2026-05-06 18:04 | 49.26404 | 21.08534 | 37860 ft | 436 kts | 321° |
| 2026-05-06 18:04 | 49.31420 | 21.03295 | 37860 ft | 436 kts | 321° |
| 2026-05-06 18:05 | 49.36844 | 20.98984 | 37863 ft | 445 kts | 335° |
| 2026-05-06 18:05 | 49.42694 | 20.95755 | 37845 ft | 448 kts | 335° |
| 2026-05-06 18:06 | 49.48568 | 20.92511 | 37866 ft | 449 kts | 335° |
| 2026-05-06 18:06 | 49.54446 | 20.89191 | 37841 ft | 450 kts | 335° |
| 2026-05-06 18:07 | 49.60333 | 20.85832 | 37847 ft | 451 kts | 335° |
| 2026-05-06 18:07 | 49.66182 | 20.82482 | 37850 ft | 450 kts | 335° |
| 2026-05-06 18:08 | 49.72064 | 20.79112 | 37835 ft | 451 kts | 335° |
| 2026-05-06 18:08 | 49.77966 | 20.75716 | 37838 ft | 453 kts | 334° |
| 2026-05-06 18:09 | 49.83880 | 20.72298 | 37827 ft | 454 kts | 334° |
| 2026-05-06 18:09 | 49.89813 | 20.68871 | 37823 ft | 454 kts | 334° |
| 2026-05-06 18:10 | 49.95739 | 20.65440 | 37830 ft | 455 kts | 334° |
| 2026-05-06 18:10 | 50.01631 | 20.62005 | 37817 ft | 455 kts | 334° |
| 2026-05-06 18:11 | 50.07567 | 20.58543 | 37809 ft | 455 kts | 334° |
| 2026-05-06 18:11 | 50.13523 | 20.55138 | 37820 ft | 456 kts | 335° |
| 2026-05-06 18:12 | 50.19550 | 20.51947 | 37812 ft | 458 kts | 336° |
| 2026-05-06 18:12 | 50.25588 | 20.48778 | 37812 ft | 458 kts | 336° |
| 2026-05-06 18:13 | 50.31635 | 20.45568 | 37799 ft | 458 kts | 336° |
| 2026-05-06 18:13 | 50.37676 | 20.42327 | 37809 ft | 458 kts | 336° |
| 2026-05-06 18:14 | 50.43708 | 20.39070 | 37814 ft | 458 kts | 335° |
| 2026-05-06 18:14 | 50.49693 | 20.35831 | 37814 ft | 458 kts | 335° |
| 2026-05-06 18:15 | 50.55728 | 20.32558 | 37802 ft | 459 kts | 335° |
| 2026-05-06 18:15 | 50.61772 | 20.29273 | 37804 ft | 460 kts | 335° |
| 2026-05-06 18:16 | 50.67825 | 20.25978 | 37812 ft | 460 kts | 335° |
| 2026-05-06 18:16 | 50.73885 | 20.22668 | 37801 ft | 461 kts | 335° |
| 2026-05-06 18:17 | 50.79940 | 20.19338 | 37804 ft | 461 kts | 335° |
| 2026-05-06 18:17 | 50.85998 | 20.16000 | 37801 ft | 461 kts | 335° |
| 2026-05-06 18:18 | 50.92062 | 20.12668 | 37800 ft | 462 kts | 335° |
| 2026-05-06 18:18 | 50.98132 | 20.09316 | 37801 ft | 462 kts | 335° |
| 2026-05-06 18:19 | 51.04162 | 20.05973 | 37803 ft | 462 kts | 335° |
| 2026-05-06 18:19 | 51.10230 | 20.02602 | 37791 ft | 462 kts | 335° |
| 2026-05-06 18:20 | 51.16297 | 19.99218 | 37791 ft | 462 kts | 335° |
| 2026-05-06 18:20 | 51.22364 | 19.95829 | 37792 ft | 462 kts | 335° |
| 2026-05-06 18:21 | 51.28486 | 19.92615 | 37816 ft | 463 kts | 337° |
| 2026-05-06 18:21 | 51.34644 | 19.89469 | 37801 ft | 464 kts | 337° |
| 2026-05-06 18:22 | 51.40806 | 19.86344 | 37781 ft | 465 kts | 338° |
| 2026-05-06 18:22 | 51.46995 | 19.83309 | 37783 ft | 465 kts | 338° |
| 2026-05-06 18:23 | 51.53135 | 19.80289 | 37786 ft | 464 kts | 338° |
| 2026-05-06 18:23 | 51.59312 | 19.77221 | 37794 ft | 465 kts | 338° |
| 2026-05-06 18:24 | 51.65489 | 19.74135 | 37776 ft | 464 kts | 338° |
| 2026-05-06 18:24 | 51.71659 | 19.71045 | 37792 ft | 464 kts | 338° |
| 2026-05-06 18:25 | 51.77834 | 19.67940 | 37788 ft | 464 kts | 338° |
| 2026-05-06 18:25 | 51.84008 | 19.64832 | 37777 ft | 465 kts | 338° |
| 2026-05-06 18:26 | 51.90182 | 19.61714 | 37777 ft | 465 kts | 338° |
| 2026-05-06 18:26 | 51.96355 | 19.58583 | 37776 ft | 465 kts | 337° |
| 2026-05-06 18:27 | 52.02522 | 19.55448 | 37777 ft | 465 kts | 338° |
| 2026-05-06 18:27 | 52.08692 | 19.52306 | 37777 ft | 465 kts | 338° |
| 2026-05-06 18:28 | 52.14865 | 19.49150 | 37783 ft | 465 kts | 338° |
| 2026-05-06 18:28 | 52.20990 | 19.46008 | 37775 ft | 464 kts | 338° |
| 2026-05-06 18:29 | 52.27152 | 19.42839 | 37775 ft | 464 kts | 338° |
| 2026-05-06 18:29 | 52.33320 | 19.39658 | 37774 ft | 464 kts | 338° |
| 2026-05-06 18:30 | 52.39477 | 19.36470 | 37779 ft | 464 kts | 337° |
| 2026-05-06 18:30 | 52.45648 | 19.33262 | 37782 ft | 465 kts | 338° |
| 2026-05-06 18:31 | 52.51813 | 19.30051 | 37777 ft | 465 kts | 338° |
| 2026-05-06 18:31 | 52.57993 | 19.26819 | 37781 ft | 466 kts | 337° |
| 2026-05-06 18:32 | 52.64163 | 19.23493 | 37759 ft | 467 kts | 337° |
| 2026-05-06 18:32 | 52.70289 | 19.20151 | 37775 ft | 467 kts | 337° |
| 2026-05-06 18:33 | 52.76464 | 19.16772 | 37781 ft | 468 kts | 337° |
| 2026-05-06 18:33 | 52.82653 | 19.13377 | 37773 ft | 468 kts | 337° |
| 2026-05-06 18:34 | 52.88841 | 19.09978 | 37784 ft | 468 kts | 337° |
| 2026-05-06 18:34 | 52.95032 | 19.06569 | 37798 ft | 469 kts | 337° |
| 2026-05-06 18:35 | 53.00184 | 19.03724 | 37780 ft | 470 kts | 337° |
| 2026-05-06 18:35 | 53.06400 | 19.00283 | 37785 ft | 470 kts | 337° |
| 2026-05-06 18:36 | 53.12612 | 18.96832 | 37774 ft | 470 kts | 336° |
| 2026-05-06 18:36 | 53.18817 | 18.93375 | 37775 ft | 470 kts | 336° |
| 2026-05-06 18:37 | 53.24986 | 18.89927 | 37805 ft | 470 kts | 336° |
| 2026-05-06 18:37 | 53.31191 | 18.86448 | 37787 ft | 471 kts | 336° |
| 2026-05-06 18:38 | 53.37407 | 18.82953 | 37816 ft | 471 kts | 336° |
| 2026-05-06 18:38 | 53.43629 | 18.79447 | 37799 ft | 472 kts | 336° |
| 2026-05-06 18:39 | 53.49858 | 18.75923 | 37796 ft | 472 kts | 336° |
| 2026-05-06 18:40 | 53.59191 | 18.70614 | 37797 ft | 471 kts | 336° |
| 2026-05-06 18:40 | 53.65405 | 18.67065 | 37818 ft | 471 kts | 336° |
| 2026-05-06 18:41 | 53.71575 | 18.63533 | 37814 ft | 471 kts | 336° |
| 2026-05-06 18:41 | 53.77720 | 18.59767 | 37813 ft | 467 kts | 332° |
| 2026-05-06 18:42 | 53.83690 | 18.55383 | 37836 ft | 467 kts | 330° |
| 2026-05-06 18:42 | 53.89636 | 18.50904 | 37830 ft | 468 kts | 331° |
| 2026-05-06 18:43 | 53.95603 | 18.46461 | 37831 ft | 468 kts | 331° |
| 2026-05-06 18:43 | 54.01578 | 18.42038 | 37831 ft | 469 kts | 331° |
| 2026-05-06 18:44 | 54.07557 | 18.37605 | 37847 ft | 469 kts | 331° |
| 2026-05-06 18:44 | 54.13534 | 18.33154 | 37852 ft | 469 kts | 331° |
| 2026-05-06 18:45 | 54.19475 | 18.28714 | 37875 ft | 469 kts | 331° |
| 2026-05-06 18:45 | 54.25450 | 18.24231 | 37859 ft | 469 kts | 331° |
| 2026-05-06 18:46 | 54.31418 | 18.19743 | 37859 ft | 468 kts | 331° |
| 2026-05-06 18:46 | 54.37375 | 18.15221 | 37859 ft | 467 kts | 331° |
| 2026-05-06 18:47 | 54.43318 | 18.10682 | 37880 ft | 467 kts | 331° |
| 2026-05-06 18:47 | 54.49255 | 18.06130 | 37872 ft | 466 kts | 330° |
| 2026-05-06 18:48 | 54.55142 | 18.01602 | 37871 ft | 466 kts | 330° |
| 2026-05-06 18:48 | 54.61066 | 17.97032 | 37880 ft | 466 kts | 330° |
| 2026-05-06 18:49 | 54.66987 | 17.92448 | 37884 ft | 466 kts | 330° |
| 2026-05-06 18:49 | 54.72905 | 17.87850 | 37881 ft | 466 kts | 330° |
| 2026-05-06 18:50 | 54.78817 | 17.83246 | 37882 ft | 466 kts | 330° |
| 2026-05-06 18:50 | 54.84720 | 17.78618 | 37891 ft | 466 kts | 330° |
| 2026-05-06 18:51 | 54.90629 | 17.73959 | 37891 ft | 466 kts | 330° |
| 2026-05-06 18:51 | 54.96527 | 17.69304 | 37917 ft | 466 kts | 330° |
| 2026-05-06 18:52 | 55.02469 | 17.64707 | 37920 ft | 467 kts | 332° |
| 2026-05-06 18:52 | 55.08432 | 17.60171 | 37901 ft | 467 kts | 331° |
| 2026-05-06 18:53 | 55.14383 | 17.55617 | 37907 ft | 467 kts | 331° |
| 2026-05-06 18:53 | 55.20336 | 17.51046 | 37912 ft | 467 kts | 331° |
| 2026-05-06 18:54 | 55.26263 | 17.46390 | 37911 ft | 466 kts | 330° |
| 2026-05-06 18:54 | 55.32166 | 17.41674 | 37920 ft | 466 kts | 330° |
| 2026-05-06 18:55 | 55.38042 | 17.36976 | 37927 ft | 467 kts | 331° |
| 2026-05-06 18:55 | 55.44063 | 17.32636 | 37918 ft | 474 kts | 342° |
| 2026-05-06 18:56 | 55.50668 | 17.31355 | 37928 ft | 484 kts | 359° |
| 2026-05-06 18:56 | 55.57404 | 17.32371 | 37937 ft | 486 kts | 2° |
| 2026-05-06 18:57 | 55.64140 | 17.33586 | 37952 ft | 487 kts | 2° |
| 2026-05-06 18:57 | 55.70879 | 17.34741 | 37938 ft | 486 kts | 1° |
| 2026-05-06 18:58 | 55.77618 | 17.35837 | 37937 ft | 486 kts | 1° |
| 2026-05-06 18:58 | 55.84353 | 17.36912 | 37946 ft | 486 kts | 1° |
| 2026-05-06 18:59 | 55.91081 | 17.37991 | 37956 ft | 486 kts | 2° |
| 2026-05-06 18:59 | 55.97819 | 17.39093 | 37946 ft | 486 kts | 1° |
| 2026-05-06 19:00 | 56.04551 | 17.40164 | 37951 ft | 485 kts | 1° |
| 2026-05-06 19:00 | 56.11274 | 17.41244 | 37956 ft | 485 kts | 1° |
| 2026-05-06 19:01 | 56.18006 | 17.42337 | 37966 ft | 486 kts | 1° |
| 2026-05-06 19:01 | 56.24699 | 17.43430 | 37954 ft | 486 kts | 1° |
| 2026-05-06 19:02 | 56.31426 | 17.44533 | 37976 ft | 486 kts | 1° |
| 2026-05-06 19:02 | 56.38165 | 17.45640 | 37969 ft | 486 kts | 1° |
| 2026-05-06 19:03 | 56.44901 | 17.46751 | 37972 ft | 486 kts | 1° |
| 2026-05-06 19:03 | 56.51645 | 17.47868 | 37961 ft | 487 kts | 1° |
| 2026-05-06 19:04 | 56.58389 | 17.49028 | 37960 ft | 487 kts | 2° |
| 2026-05-06 19:04 | 56.65143 | 17.50163 | 37967 ft | 487 kts | 2° |
| 2026-05-06 19:05 | 56.71893 | 17.51285 | 37983 ft | 487 kts | 2° |
| 2026-05-06 19:05 | 56.78643 | 17.52414 | 37973 ft | 487 kts | 2° |
| 2026-05-06 19:06 | 56.85393 | 17.53551 | 37967 ft | 487 kts | 2° |
| 2026-05-06 19:06 | 56.92090 | 17.54684 | 37970 ft | 487 kts | 2° |
| 2026-05-06 19:07 | 56.98834 | 17.55829 | 37984 ft | 486 kts | 2° |
| 2026-05-06 19:07 | 57.05574 | 17.56977 | 37973 ft | 487 kts | 2° |
| 2026-05-06 19:08 | 57.12324 | 17.58132 | 37978 ft | 486 kts | 2° |
| 2026-05-06 19:08 | 57.19063 | 17.59282 | 37979 ft | 486 kts | 1° |
| 2026-05-06 19:09 | 57.25807 | 17.60436 | 38000 ft | 486 kts | 1° |
| 2026-05-06 19:09 | 57.32552 | 17.61602 | 37985 ft | 487 kts | 1° |
| 2026-05-06 19:10 | 57.39295 | 17.62773 | 37986 ft | 487 kts | 1° |
| 2026-05-06 19:10 | 57.46044 | 17.63949 | 37986 ft | 487 kts | 1° |
| 2026-05-06 19:11 | 57.52752 | 17.65122 | 37991 ft | 487 kts | 1° |
| 2026-05-06 19:11 | 57.59502 | 17.66306 | 37992 ft | 487 kts | 1° |
| 2026-05-06 19:12 | 57.66260 | 17.67496 | 37844 ft | 490 kts | 2° |
| 2026-05-06 19:12 | 57.69672 | 17.68097 | 37299 ft | 490 kts | 2° |
| 2026-05-06 19:12 | 57.73059 | 17.68698 | 36699 ft | 488 kts | 2° |
| 2026-05-06 19:12 | 57.76434 | 17.69298 | 36088 ft | 486 kts | 2° |
| 2026-05-06 19:13 | 57.79798 | 17.69897 | 35474 ft | 487 kts | 1° |
| 2026-05-06 19:13 | 57.83180 | 17.70498 | 34772 ft | 489 kts | 2° |
| 2026-05-06 19:13 | 57.86558 | 17.71153 | 34316 ft | 486 kts | 3° |
| 2026-05-06 19:13 | 57.89872 | 17.72003 | 34099 ft | 476 kts | 5° |
| 2026-05-06 19:14 | 57.93156 | 17.72960 | 33853 ft | 480 kts | 5° |
| 2026-05-06 19:14 | 57.96445 | 17.73954 | 33598 ft | 489 kts | 6° |
| 2026-05-06 19:14 | 57.99824 | 17.74979 | 33333 ft | 495 kts | 6° |
| 2026-05-06 19:14 | 58.03241 | 17.75993 | 33061 ft | 496 kts | 5° |
| 2026-05-06 19:15 | 58.06651 | 17.76983 | 32783 ft | 495 kts | 5° |
| 2026-05-06 19:15 | 58.10048 | 17.77957 | 32541 ft | 495 kts | 5° |
| 2026-05-06 19:15 | 58.13454 | 17.78945 | 32265 ft | 495 kts | 5° |
| 2026-05-06 19:15 | 58.16863 | 17.79917 | 32001 ft | 494 kts | 5° |
| 2026-05-06 19:16 | 58.20264 | 17.80882 | 31743 ft | 493 kts | 5° |
| 2026-05-06 19:16 | 58.23615 | 17.81838 | 31490 ft | 494 kts | 5° |
| 2026-05-06 19:16 | 58.27018 | 17.82812 | 31226 ft | 494 kts | 5° |
| 2026-05-06 19:16 | 58.30415 | 17.83785 | 30410 ft | 494 kts | 5° |
| 2026-05-06 19:17 | 58.33796 | 17.84753 | 29907 ft | 488 kts | 5° |
| 2026-05-06 19:17 | 58.37147 | 17.85718 | 29306 ft | 483 kts | 4° |
| 2026-05-06 19:17 | 58.40453 | 17.86675 | 28751 ft | 478 kts | 4° |
| 2026-05-06 19:17 | 58.43717 | 17.87623 | 28213 ft | 472 kts | 4° |
| 2026-05-06 19:18 | 58.46946 | 17.88562 | 27686 ft | 466 kts | 4° |
| 2026-05-06 19:18 | 58.50139 | 17.89492 | 27156 ft | 462 kts | 4° |
| 2026-05-06 19:18 | 58.53299 | 17.90420 | 26635 ft | 457 kts | 4° |
| 2026-05-06 19:18 | 58.56429 | 17.91332 | 26104 ft | 453 kts | 4° |
| 2026-05-06 19:19 | 58.59541 | 17.92237 | 25597 ft | 449 kts | 4° |
| 2026-05-06 19:19 | 58.62617 | 17.93133 | 25093 ft | 445 kts | 4° |
| 2026-05-06 19:19 | 58.65670 | 17.94025 | 24608 ft | 442 kts | 4° |
| 2026-05-06 19:19 | 58.68665 | 17.94902 | 24103 ft | 439 kts | 4° |
| 2026-05-06 19:20 | 58.71676 | 17.95787 | 23602 ft | 437 kts | 4° |
| 2026-05-06 19:20 | 58.74677 | 17.96668 | 23003 ft | 434 kts | 4° |
| 2026-05-06 19:20 | 58.77648 | 17.97547 | 22465 ft | 430 kts | 4° |
| 2026-05-06 19:20 | 58.80596 | 17.98424 | 21968 ft | 425 kts | 4° |
| 2026-05-06 19:21 | 58.82526 | 17.98997 | 21647 ft | 422 kts | 4° |
| 2026-05-06 19:21 | 58.85413 | 17.99853 | 21147 ft | 418 kts | 4° |
| 2026-05-06 19:21 | 58.88276 | 18.00702 | 20601 ft | 415 kts | 4° |
| 2026-05-06 19:21 | 58.91143 | 18.01549 | 19749 ft | 420 kts | 4° |
| 2026-05-06 19:22 | 58.94040 | 18.02407 | 19088 ft | 420 kts | 5° |
| 2026-05-06 19:22 | 58.96919 | 18.03229 | 18563 ft | 415 kts | 4° |
| 2026-05-06 19:22 | 58.99766 | 18.03905 | 18054 ft | 410 kts | 3° |
| 2026-05-06 19:22 | 59.02581 | 18.04515 | 17493 ft | 405 kts | 2° |
| 2026-05-06 19:23 | 59.05365 | 18.05095 | 16928 ft | 400 kts | 2° |
| 2026-05-06 19:23 | 59.08122 | 18.05655 | 16387 ft | 396 kts | 2° |
| 2026-05-06 19:23 | 59.10847 | 18.06190 | 15852 ft | 392 kts | 2° |
| 2026-05-06 19:23 | 59.13549 | 18.06703 | 15328 ft | 388 kts | 2° |
| 2026-05-06 19:24 | 59.16221 | 18.07192 | 14816 ft | 384 kts | 2° |
| 2026-05-06 19:24 | 59.18875 | 18.07660 | 14322 ft | 380 kts | 3° |
| 2026-05-06 19:24 | 59.21499 | 18.08107 | 13815 ft | 377 kts | 2° |
| 2026-05-06 19:24 | 59.24105 | 18.08553 | 13229 ft | 374 kts | 2° |
| 2026-05-06 19:25 | 59.26684 | 18.08990 | 12709 ft | 370 kts | 2° |
| 2026-05-06 19:25 | 59.29207 | 18.09408 | 12185 ft | 367 kts | 2° |
| 2026-05-06 19:25 | 59.31742 | 18.09815 | 11659 ft | 363 kts | 2° |
| 2026-05-06 19:25 | 59.34248 | 18.10204 | 11150 ft | 360 kts | 2° |
| 2026-05-06 19:26 | 59.36736 | 18.10576 | 10642 ft | 357 kts | 3° |
| 2026-05-06 19:26 | 59.39199 | 18.10930 | 10151 ft | 354 kts | 3° |
| 2026-05-06 19:26 | 59.41647 | 18.11267 | 9632 ft | 351 kts | 3° |
| 2026-05-06 19:26 | 59.44073 | 18.11588 | 9101 ft | 347 kts | 2° |
| 2026-05-06 19:27 | 59.46477 | 18.11893 | 8586 ft | 344 kts | 3° |
| 2026-05-06 19:27 | 59.48858 | 18.12181 | 8057 ft | 338 kts | 2° |
| 2026-05-06 19:27 | 59.51164 | 18.12457 | 7357 ft | 334 kts | 2° |
| 2026-05-06 19:27 | 59.53450 | 18.12730 | 7008 ft | 320 kts | 3° |
| 2026-05-06 19:28 | 59.55608 | 18.12974 | 6864 ft | 300 kts | 3° |
| 2026-05-06 19:28 | 59.57628 | 18.13190 | 6723 ft | 282 kts | 2° |
| 2026-05-06 19:28 | 59.59535 | 18.13389 | 6546 ft | 268 kts | 3° |
| 2026-05-06 19:28 | 59.61398 | 18.13576 | 6202 ft | 268 kts | 3° |
| 2026-05-06 19:29 | 59.63251 | 18.13752 | 5931 ft | 265 kts | 2° |
| 2026-05-06 19:29 | 59.65094 | 18.13921 | 5619 ft | 265 kts | 2° |
| 2026-05-06 19:29 | 59.66925 | 18.14084 | 5326 ft | 261 kts | 2° |
| 2026-05-06 19:29 | 59.68692 | 18.14239 | 5230 ft | 248 kts | 2° |
| 2026-05-06 19:30 | 59.70373 | 18.14384 | 5116 ft | 235 kts | 2° |
| 2026-05-06 19:30 | 59.71966 | 18.14519 | 5010 ft | 224 kts | 2° |
| 2026-05-06 19:30 | 59.73507 | 18.14647 | 4794 ft | 220 kts | 2° |
| 2026-05-06 19:30 | 59.75035 | 18.14773 | 4542 ft | 220 kts | 3° |
| 2026-05-06 19:31 | 59.76568 | 18.14898 | 4216 ft | 223 kts | 2° |
| 2026-05-06 19:31 | 59.78142 | 18.15024 | 3841 ft | 229 kts | 2° |
| 2026-05-06 19:31 | 59.81269 | 18.14775 | 3364 ft | 225 kts | 334° |
| 2026-05-06 19:32 | 59.82451 | 18.12844 | 3069 ft | 220 kts | 300° |
| 2026-05-06 19:32 | 59.82863 | 18.10019 | 2895 ft | 211 kts | 264° |
| 2026-05-06 19:32 | 59.82397 | 18.07355 | 2785 ft | 204 kts | 232° |
| 2026-05-06 19:32 | 59.81507 | 18.05145 | 2717 ft | 207 kts | 228° |
| 2026-05-06 19:33 | 59.80565 | 18.02948 | 2611 ft | 210 kts | 227° |
| 2026-05-06 19:33 | 59.79439 | 18.01226 | 2479 ft | 200 kts | 194° |
| 2026-05-06 19:33 | 59.78131 | 18.00853 | 2497 ft | 184 kts | 191° |
| 2026-05-06 19:33 | 59.76929 | 18.00192 | 2491 ft | 177 kts | 192° |
| 2026-05-06 19:34 | 59.75712 | 17.99763 | 2379 ft | 179 kts | 188° |
| 2026-05-06 19:34 | 59.74477 | 17.99352 | 2149 ft | 179 kts | 189° |
| 2026-05-06 19:34 | 59.73279 | 17.98927 | 1911 ft | 176 kts | 190° |
| 2026-05-06 19:34 | 59.72093 | 17.98494 | 1650 ft | 169 kts | 189° |
| 2026-05-06 19:35 | 59.70976 | 17.98088 | 1443 ft | 156 kts | 190° |
| 2026-05-06 19:35 | 59.69957 | 17.97718 | 1203 ft | 143 kts | 190° |
| 2026-05-06 19:35 | 59.68992 | 17.97370 | 1010 ft | 139 kts | 189° |
| 2026-05-06 19:35 | 59.68042 | 17.97023 | 812 ft | 138 kts | 189° |
| 2026-05-06 19:36 | 59.67096 | 17.96678 | 617 ft | 138 kts | 188° |
| 2026-05-06 19:36 | 59.66150 | 17.96339 | 409 ft | 138 kts | 189° |
| 2026-05-06 19:36 | 59.65202 | 17.96006 | 214 ft | 139 kts | 188° |
| 2026-05-06 19:36 | 59.64286 | 17.95670 | 112 ft | 128 kts | 187° |
| 2026-05-06 19:37 | 59.63560 | 17.95411 | 119 ft | 61 kts | 191° |
| 2026-05-06 19:37 | 59.63323 | 17.95172 | 122 ft | 31 kts | 220° |
| 2026-05-06 19:37 | 59.63243 | 17.95005 | 123 ft | 14 kts | 260° |
| 2026-05-06 19:37 | 59.63305 | 17.94911 | 121 ft | 13 kts | 6° |
| 2026-05-06 19:38 | 59.63400 | 17.94943 | 120 ft | 14 kts | 11° |
| 2026-05-06 19:38 | 59.63503 | 17.94982 | 117 ft | 16 kts | 10° |
| 2026-05-06 19:38 | 59.63618 | 17.95023 | 113 ft | 19 kts | 11° |
| 2026-05-06 19:38 | 59.63768 | 17.95077 | 110 ft | 25 kts | 10° |
| 2026-05-06 19:39 | 59.63954 | 17.95146 | 108 ft | 29 kts | 10° |
| 2026-05-06 19:39 | 59.64165 | 17.95221 | 106 ft | 31 kts | 11° |
| 2026-05-06 19:39 | 59.64375 | 17.95299 | 105 ft | 30 kts | 11° |
| 2026-05-06 19:39 | 59.64574 | 17.95369 | 104 ft | 28 kts | 11° |
| 2026-05-06 19:40 | 59.64761 | 17.95439 | 105 ft | 26 kts | 10° |
| 2026-05-06 19:40 | 59.64936 | 17.95504 | 109 ft | 25 kts | 10° |
| 2026-05-06 19:40 | 59.65099 | 17.95486 | 115 ft | 23 kts | 345° |
| 2026-05-06 19:40 | 59.65250 | 17.95408 | 121 ft | 23 kts | 345° |
| 2026-05-06 19:41 | 59.65413 | 17.95320 | 125 ft | 26 kts | 345° |
| 2026-05-06 19:41 | 59.65589 | 17.95227 | 127 ft | 25 kts | 345° |
| 2026-05-06 19:41 | 59.65730 | 17.95129 | 125 ft | 20 kts | 317° |
| 2026-05-06 19:41 | 59.65731 | 17.94878 | 120 ft | 19 kts | 257° |
| 2026-05-06 19:42 | 59.65697 | 17.94605 | 122 ft | 21 kts | 256° |
| 2026-05-06 19:42 | 59.65659 | 17.94309 | 123 ft | 22 kts | 256° |
| 2026-05-06 19:42 | 59.65621 | 17.94007 | 117 ft | 23 kts | 256° |
| 2026-05-06 19:42 | 59.65580 | 17.93682 | 112 ft | 24 kts | 256° |
| 2026-05-06 19:43 | 59.65545 | 17.93410 | 110 ft | 12 kts | 254° |
| 2026-05-06 19:43 | 59.65487 | 17.93344 | 111 ft | 10 kts | 187° |
| 2026-05-06 19:43 | 59.65417 | 17.93364 | 111 ft | 10 kts | 166° |
| 2026-05-06 19:43 | 59.65383 | 17.93404 | 111 ft | 3 kts | 93° |
| 2026-05-06 19:44 | 59.65390 | 17.93464 | 111 ft | 6 kts | 77° |
| 2026-05-06 19:44 | 59.65396 | 17.93508 | 111 ft | 0 kts | 76° |